Tuesday, May 22, 2018, 1:50 AM EDT
Back to Local

KPEO, Penn Yan Airport

Location: Penn Yan, NY, United States Lat: 42.65
Local Time: 1:50 AM EDT ( 5:50 GMT) Lon: -77.05
Time Zone: US/Eastern Elev: 977 ft

Show me the last for .
Show Coded

Time T Td Feel RH Dir Speed Gust Alt SLP Vis Weather Sky Remarks
2018-05-22 00:53 58 48 - 69 - Calm - 30.14 30.14 10 CLR 24-hr Min Temp (1am): 50.0°F
24-hr Max Temp (1am): 73.0°F
2018-05-21 23:53 59 48 - 66 - Calm - 30.15 30.14 10 CLR None
2018-05-21 22:53 61 48 - 62 - Calm - 30.16 30.15 10 CLR None
2018-05-21 21:53 61 48 - 62 - Calm - 30.15 30.15 10 CLR None
2018-05-21 20:53 62 46 - 55 - Calm - 30.15 30.14 10 CLR None
2018-05-21 19:53 66 44 - 44 - Calm - 30.15 30.14 10 CLR 6-hr Min Temp (8pm): 66.0°F
6-hr Max Temp (8pm): 73.0°F
2018-05-21 18:53 71 42 - 35 - Calm - 30.16 30.15 10 CLR None
2018-05-21 17:53 72 38 - 28 - Calm - 30.17 30.16 10 CLR None
2018-05-21 16:53 73 36 - 25 340° 3 - 30.18 30.17 10 CLR None
2018-05-21 15:53 72 41 - 32 - Calm - 30.19 30.18 10 CLR None
2018-05-21 14:53 72 41 - 32 Variable 3 - 30.21 30.20 10 CLR None
2018-05-21 13:53 70 40 - 33 - Calm - 30.22 30.21 10 CLR 6-hr Min Temp (2pm): 55.0°F
6-hr Max Temp (2pm): 70.0°F
2018-05-21 12:53 68 39 - 34 50° 3 - 30.25 30.24 10 CLR None
2018-05-21 11:53 65 41 - 41 170° 5 - 30.26 30.26 10 CLR None
2018-05-21 10:53 64 41 - 42 140° 3 - 30.26 30.26 10 CLR None
2018-05-21 09:53 63 40 - 42 280° 5 - 30.26 30.26 10 CLR None
2018-05-21 08:53 59 41 - 51 - Calm - 30.25 30.25 10 CLR None
2018-05-21 07:53 55 47 - 74 220° 5 - 30.25 30.24 10 CLR 6-hr Min Temp (8am): 50.0°F
6-hr Max Temp (8am): 55.0°F
2018-05-21 06:53 51 47 - 85 250° 6 - 30.23 30.23 10 CLR None
2018-05-21 05:53 51 46 - 82 220° 6 - 30.22 30.22 10 CLR None
2018-05-21 04:53 51 47 - 85 250° 6 - 30.20 30.20 10 CLR None
2018-05-21 03:53 52 49 - 89 250° 6 - 30.18 30.18 10 CLR None
2018-05-21 02:53 52 49 - 89 250° 3 - 30.16 30.16 10 CLR None
2018-05-21 01:53 52 49 - 89 240° 3 - 30.17 30.17 10 CLR 6-hr Min Temp (2am): 51.1°F
6-hr Max Temp (2am): 63.0°F

Support USWX by starting your Amazon purchase here.